• Join FlightAware (Why Join?)
  • Login
  • US Flag 
08:18AM EDT


 

Airport Tracker/Info


-or-


 

Live Flight TrackerFlight Track Log ✈ N829TG ✈ 03-Jul-2013 ✈ KNEW - KNEW

Flight Track Log - Related Links

Times and Time Zones

All times are in EDT time to prevent confusion due to time zone crossing. See the N829TG flight status page for this flight to view local times or setup timezone preferences in your user account.

Time Position Orientation Groundspeed Altitude Reporting Facility
EDT Latitude Longitude Course Direction KTS MPH feet Rate Location/Type
01:01PM 30.0589 -90.0294 18° North 134 154 600  Level Houston Center
01:03PM 30.1147 -90.0081 18° North 202 232 2,700 1,020 Climbing Houston Center
01:04PM 30.1022 -89.9436 103° East 225 259 3,000 120 Climbing Houston Center
01:05PM 30.0456 -89.9411 178° South 192 221 3,000  Level Houston Center
01:06PM 30.0008 -89.9442 183° South 191 220 3,000  Level Houston Center
01:07PM 29.9581 -89.9475 184° South 158 182 3,000  Level Houston Center
01:08PM 29.9122 -89.9494 182° South 157 181 3,000 -240 Level Houston Center
01:09PM 29.8731 -89.9703 205° Southwest 177 204 2,600 -240 Descending Houston Center
01:10PM 29.8811 -90.0250 280° West 165 190 2,600 -180 Level Houston Center
01:11PM 29.9311 -90.0300 355° North 158 182 2,200 -660 Descending Houston Center
01:12PM 29.9669 -90.0286 North 132 152 1,300 -840 Descending Houston Center
01:13PM 30.0025 -90.0294 359° North 122 140 700 -360 Descending Houston Center
01:14PM 30.0358 -90.0306 358° North 117 135 600 780 Descending Houston Center
01:15PM 30.0539 -90.0008 55° Northeast 144 166 2,300 1,140 Climbing Houston Center
01:16PM 30.0314 -89.9539 119° Southeast 211 243 3,000 300 Climbing Houston Center
01:17PM 29.9867 -89.9942 218° Southwest 232 267 3,000  Level Houston Center
01:18PM 29.9467 -90.0486 230° Southwest 218 251 3,000  Level Houston Center
01:19PM 29.9128 -90.1028 234° Southwest 207 238 3,100 60 Climbing Houston Center
01:20PM 29.8769 -90.1594 234° Southwest 214 246 3,200 -420 Climbing Houston Center
01:21PM 29.8539 -90.2253 248° West 235 270 2,300 -600 Descending Houston Center
01:22PM 29.8517 -90.2878 268° West 180 207 2,100 -180 Descending Houston Center
01:23PM 29.8972 -90.2800 North 162 186 1,900 -480 Descending Houston Center
01:24PM 29.9358 -90.2692 14° North 149 171 1,000 -660 Descending Houston Center
01:25PM 29.9767 -90.2575 14° North 143 165 600 -420 Descending Houston Center